sensor_id;sensor_type;location;lat;lon;timestamp;P1;durP1;ratioP1;P2;durP2;ratioP2
51489;SDS011;57752;53.574;9.736;2022-12-10T00:00:02;71.47;;;24.00;;
51489;SDS011;57752;53.574;9.736;2022-12-10T00:05:02;64.80;;;23.27;;
51489;SDS011;57752;53.574;9.736;2022-12-10T00:10:03;72.55;;;25.45;;
51489;SDS011;57752;53.574;9.736;2022-12-10T00:15:03;47.83;;;18.98;;
51489;SDS011;57752;53.574;9.736;2022-12-10T00:20:03;53.95;;;18.73;;
51489;SDS011;57752;53.574;9.736;2022-12-10T00:25:04;48.97;;;17.88;;
51489;SDS011;57752;53.574;9.736;2022-12-10T00:30:04;53.95;;;20.35;;
51489;SDS011;57752;53.574;9.736;2022-12-10T00:35:04;49.88;;;19.58;;
51489;SDS011;57752;53.574;9.736;2022-12-10T00:40:05;45.08;;;20.10;;
51489;SDS011;57752;53.574;9.736;2022-12-10T00:45:05;50.25;;;19.92;;
51489;SDS011;57752;53.574;9.736;2022-12-10T00:50:06;44.20;;;18.35;;
51489;SDS011;57752;53.574;9.736;2022-12-10T00:55:06;44.20;;;17.48;;
51489;SDS011;57752;53.574;9.736;2022-12-10T01:00:06;46.03;;;18.23;;
51489;SDS011;57752;53.574;9.736;2022-12-10T01:05:07;46.58;;;18.48;;
51489;SDS011;57752;53.574;9.736;2022-12-10T01:10:07;45.35;;;18.63;;
51489;SDS011;57752;53.574;9.736;2022-12-10T01:15:07;69.10;;;24.27;;
51489;SDS011;57752;53.574;9.736;2022-12-10T01:20:08;82.78;;;24.15;;
51489;SDS011;57752;53.574;9.736;2022-12-10T01:25:09;71.85;;;24.70;;
51489;SDS011;57752;53.574;9.736;2022-12-10T01:30:09;58.90;;;21.15;;
51489;SDS011;57752;53.574;9.736;2022-12-10T01:35:09;69.97;;;23.20;;
51489;SDS011;57752;53.574;9.736;2022-12-10T01:40:09;71.75;;;21.58;;
51489;SDS011;57752;53.574;9.736;2022-12-10T01:45:10;63.97;;;21.90;;
51489;SDS011;57752;53.574;9.736;2022-12-10T01:50:11;72.65;;;21.95;;
51489;SDS011;57752;53.574;9.736;2022-12-10T02:00:31;72.78;;;23.83;;
51489;SDS011;57752;53.574;9.736;2022-12-10T02:05:36;82.45;;;23.85;;
51489;SDS011;57752;53.574;9.736;2022-12-10T02:15:54;67.90;;;21.42;;
51489;SDS011;57752;53.574;9.736;2022-12-10T02:21:00;63.67;;;20.52;;
51489;SDS011;57752;53.574;9.736;2022-12-10T02:31:05;67.45;;;23.63;;
51489;SDS011;57752;53.574;9.736;2022-12-10T02:36:06;59.30;;;21.42;;
51489;SDS011;57752;53.574;9.736;2022-12-10T02:41:10;63.63;;;20.58;;
51489;SDS011;57752;53.574;9.736;2022-12-10T02:46:11;68.32;;;23.77;;
51489;SDS011;57752;53.574;9.736;2022-12-10T02:51:11;66.72;;;21.98;;
51489;SDS011;57752;53.574;9.736;2022-12-10T02:56:14;62.70;;;20.80;;
51489;SDS011;57752;53.574;9.736;2022-12-10T03:01:32;60.75;;;21.98;;
51489;SDS011;57752;53.574;9.736;2022-12-10T03:06:38;53.78;;;19.30;;
51489;SDS011;57752;53.574;9.736;2022-12-10T03:11:40;59.92;;;20.25;;
51489;SDS011;57752;53.574;9.736;2022-12-10T03:16:42;59.10;;;20.67;;
51489;SDS011;57752;53.574;9.736;2022-12-10T03:21:43;45.47;;;16.10;;
51489;SDS011;57752;53.574;9.736;2022-12-10T03:26:45;60.05;;;21.80;;
51489;SDS011;57752;53.574;9.736;2022-12-10T03:31:47;52.10;;;17.85;;
51489;SDS011;57752;53.574;9.736;2022-12-10T03:36:48;49.58;;;19.08;;
51489;SDS011;57752;53.574;9.736;2022-12-10T03:41:48;47.22;;;17.17;;
51489;SDS011;57752;53.574;9.736;2022-12-10T03:46:49;52.55;;;19.38;;
51489;SDS011;57752;53.574;9.736;2022-12-10T03:51:49;49.95;;;17.95;;
51489;SDS011;57752;53.574;9.736;2022-12-10T03:56:49;51.53;;;19.05;;
51489;SDS011;57752;53.574;9.736;2022-12-10T04:01:49;50.03;;;18.38;;
51489;SDS011;57752;53.574;9.736;2022-12-10T04:06:49;48.92;;;18.52;;
51489;SDS011;57752;53.574;9.736;2022-12-10T04:11:50;46.80;;;17.13;;
51489;SDS011;57752;53.574;9.736;2022-12-10T04:16:50;50.10;;;18.88;;
51489;SDS011;57752;53.574;9.736;2022-12-10T04:21:50;53.53;;;19.45;;
51489;SDS011;57752;53.574;9.736;2022-12-10T04:27:10;42.65;;;16.15;;
51489;SDS011;57752;53.574;9.736;2022-12-10T04:32:11;38.97;;;16.30;;
51489;SDS011;57752;53.574;9.736;2022-12-10T04:37:11;36.85;;;14.73;;
51489;SDS011;57752;53.574;9.736;2022-12-10T04:42:11;34.08;;;15.27;;
51489;SDS011;57752;53.574;9.736;2022-12-10T04:47:12;47.90;;;16.25;;
51489;SDS011;57752;53.574;9.736;2022-12-10T04:52:13;41.58;;;16.75;;
51489;SDS011;57752;53.574;9.736;2022-12-10T04:57:13;46.80;;;17.25;;
51489;SDS011;57752;53.574;9.736;2022-12-10T05:02:14;36.33;;;15.15;;
51489;SDS011;57752;53.574;9.736;2022-12-10T05:07:14;37.65;;;14.43;;
51489;SDS011;57752;53.574;9.736;2022-12-10T05:12:14;36.30;;;14.95;;
51489;SDS011;57752;53.574;9.736;2022-12-10T05:17:14;37.28;;;15.48;;
51489;SDS011;57752;53.574;9.736;2022-12-10T05:22:14;35.20;;;14.88;;
51489;SDS011;57752;53.574;9.736;2022-12-10T05:27:33;39.00;;;16.50;;
51489;SDS011;57752;53.574;9.736;2022-12-10T05:32:34;39.13;;;16.20;;
51489;SDS011;57752;53.574;9.736;2022-12-10T05:37:34;43.22;;;16.13;;
51489;SDS011;57752;53.574;9.736;2022-12-10T05:42:34;35.88;;;15.25;;
51489;SDS011;57752;53.574;9.736;2022-12-10T05:47:34;34.45;;;15.32;;
51489;SDS011;57752;53.574;9.736;2022-12-10T05:52:34;40.97;;;16.55;;
51489;SDS011;57752;53.574;9.736;2022-12-10T05:57:36;39.75;;;15.90;;
51489;SDS011;57752;53.574;9.736;2022-12-10T06:02:36;41.35;;;18.88;;
51489;SDS011;57752;53.574;9.736;2022-12-10T06:07:36;39.10;;;17.80;;
51489;SDS011;57752;53.574;9.736;2022-12-10T06:12:37;42.15;;;18.48;;
51489;SDS011;57752;53.574;9.736;2022-12-10T06:17:37;39.80;;;16.50;;
51489;SDS011;57752;53.574;9.736;2022-12-10T06:22:37;40.45;;;17.95;;
51489;SDS011;57752;53.574;9.736;2022-12-10T06:27:37;39.22;;;17.38;;
51489;SDS011;57752;53.574;9.736;2022-12-10T06:32:38;35.40;;;15.40;;
51489;SDS011;57752;53.574;9.736;2022-12-10T06:37:39;35.65;;;15.75;;
51489;SDS011;57752;53.574;9.736;2022-12-10T06:42:39;29.48;;;13.30;;
51489;SDS011;57752;53.574;9.736;2022-12-10T06:47:39;33.03;;;14.00;;
51489;SDS011;57752;53.574;9.736;2022-12-10T06:52:39;31.48;;;13.20;;
51489;SDS011;57752;53.574;9.736;2022-12-10T06:57:39;33.05;;;15.07;;
51489;SDS011;57752;53.574;9.736;2022-12-10T07:02:40;36.15;;;14.57;;
51489;SDS011;57752;53.574;9.736;2022-12-10T07:07:40;34.88;;;13.75;;
51489;SDS011;57752;53.574;9.736;2022-12-10T07:12:40;28.30;;;13.05;;
51489;SDS011;57752;53.574;9.736;2022-12-10T07:17:40;31.20;;;14.07;;
51489;SDS011;57752;53.574;9.736;2022-12-10T07:22:40;31.48;;;13.73;;
51489;SDS011;57752;53.574;9.736;2022-12-10T07:27:40;34.35;;;14.20;;
51489;SDS011;57752;53.574;9.736;2022-12-10T07:32:41;33.95;;;13.98;;
51489;SDS011;57752;53.574;9.736;2022-12-10T07:37:41;28.55;;;12.15;;
51489;SDS011;57752;53.574;9.736;2022-12-10T07:42:41;28.15;;;11.93;;
51489;SDS011;57752;53.574;9.736;2022-12-10T07:47:41;30.65;;;13.45;;
51489;SDS011;57752;53.574;9.736;2022-12-10T07:52:41;28.38;;;12.35;;
51489;SDS011;57752;53.574;9.736;2022-12-10T07:57:41;39.05;;;14.70;;
51489;SDS011;57752;53.574;9.736;2022-12-10T08:02:41;30.73;;;12.65;;
51489;SDS011;57752;53.574;9.736;2022-12-10T08:07:42;29.48;;;12.65;;
51489;SDS011;57752;53.574;9.736;2022-12-10T08:12:42;30.77;;;13.60;;
51489;SDS011;57752;53.574;9.736;2022-12-10T08:17:42;31.13;;;12.02;;
51489;SDS011;57752;53.574;9.736;2022-12-10T08:22:42;28.42;;;11.93;;
51489;SDS011;57752;53.574;9.736;2022-12-10T08:27:42;28.65;;;12.88;;
51489;SDS011;57752;53.574;9.736;2022-12-10T08:32:42;27.92;;;12.00;;
51489;SDS011;57752;53.574;9.736;2022-12-10T08:37:43;26.00;;;10.98;;
51489;SDS011;57752;53.574;9.736;2022-12-10T08:42:43;25.58;;;11.10;;
51489;SDS011;57752;53.574;9.736;2022-12-10T08:47:43;26.25;;;12.18;;
51489;SDS011;57752;53.574;9.736;2022-12-10T08:52:43;33.40;;;12.27;;
51489;SDS011;57752;53.574;9.736;2022-12-10T08:57:44;31.02;;;12.07;;
51489;SDS011;57752;53.574;9.736;2022-12-10T09:02:44;25.10;;;10.40;;
51489;SDS011;57752;53.574;9.736;2022-12-10T09:07:44;26.23;;;10.43;;
51489;SDS011;57752;53.574;9.736;2022-12-10T09:12:45;26.98;;;10.40;;
51489;SDS011;57752;53.574;9.736;2022-12-10T09:17:45;25.27;;;10.23;;
51489;SDS011;57752;53.574;9.736;2022-12-10T09:22:45;24.80;;;10.60;;
51489;SDS011;57752;53.574;9.736;2022-12-10T09:27:45;23.33;;;10.23;;
51489;SDS011;57752;53.574;9.736;2022-12-10T09:32:45;25.70;;;10.93;;
51489;SDS011;57752;53.574;9.736;2022-12-10T09:37:45;27.38;;;11.55;;
51489;SDS011;57752;53.574;9.736;2022-12-10T09:53:24;25.80;;;9.65;;
51489;SDS011;57752;53.574;9.736;2022-12-10T09:58:26;28.05;;;11.50;;
51489;SDS011;57752;53.574;9.736;2022-12-10T10:03:37;23.83;;;10.05;;
51489;SDS011;57752;53.574;9.736;2022-12-10T10:08:53;23.98;;;10.02;;
51489;SDS011;57752;53.574;9.736;2022-12-10T10:24:04;22.13;;;9.25;;
51489;SDS011;57752;53.574;9.736;2022-12-10T10:29:05;21.38;;;9.27;;
51489;SDS011;57752;53.574;9.736;2022-12-10T10:34:15;20.63;;;9.07;;
51489;SDS011;57752;53.574;9.736;2022-12-10T10:44:16;21.70;;;9.25;;
51489;SDS011;57752;53.574;9.736;2022-12-10T10:59:32;19.63;;;9.25;;
51489;SDS011;57752;53.574;9.736;2022-12-10T11:04:52;23.65;;;10.20;;
51489;SDS011;57752;53.574;9.736;2022-12-10T11:09:54;23.38;;;9.20;;
51489;SDS011;57752;53.574;9.736;2022-12-10T11:14:55;21.08;;;9.20;;
51489;SDS011;57752;53.574;9.736;2022-12-10T11:20:15;20.73;;;8.55;;
51489;SDS011;57752;53.574;9.736;2022-12-10T11:25:16;22.23;;;9.43;;
51489;SDS011;57752;53.574;9.736;2022-12-10T11:30:18;22.02;;;9.55;;
51489;SDS011;57752;53.574;9.736;2022-12-10T11:35:30;22.52;;;8.88;;
51489;SDS011;57752;53.574;9.736;2022-12-10T11:51:19;23.35;;;9.15;;
51489;SDS011;57752;53.574;9.736;2022-12-10T11:56:31;21.45;;;9.15;;
51489;SDS011;57752;53.574;9.736;2022-12-10T12:01:47;23.70;;;9.32;;
51489;SDS011;57752;53.574;9.736;2022-12-10T12:12:41;20.73;;;9.47;;
51489;SDS011;57752;53.574;9.736;2022-12-10T12:17:32;23.13;;;9.85;;
51489;SDS011;57752;53.574;9.736;2022-12-10T12:22:36;21.80;;;9.68;;
51489;SDS011;57752;53.574;9.736;2022-12-10T12:27:38;23.10;;;10.07;;
51489;SDS011;57752;53.574;9.736;2022-12-10T12:37:47;20.85;;;8.65;;
51489;SDS011;57752;53.574;9.736;2022-12-10T12:42:54;22.27;;;8.95;;
51489;SDS011;57752;53.574;9.736;2022-12-10T12:48:14;24.10;;;9.65;;
51489;SDS011;57752;53.574;9.736;2022-12-10T12:53:20;23.02;;;9.90;;
51489;SDS011;57752;53.574;9.736;2022-12-10T12:58:40;22.38;;;10.00;;
51489;SDS011;57752;53.574;9.736;2022-12-10T13:03:42;19.00;;;8.60;;
51489;SDS011;57752;53.574;9.736;2022-12-10T13:08:50;19.45;;;8.82;;
51489;SDS011;57752;53.574;9.736;2022-12-10T13:19:46;20.98;;;9.55;;
51489;SDS011;57752;53.574;9.736;2022-12-10T14:00:57;22.17;;;9.23;;
51489;SDS011;57752;53.574;9.736;2022-12-10T14:06:03;22.58;;;10.15;;
51489;SDS011;57752;53.574;9.736;2022-12-10T14:11:06;24.25;;;10.20;;
51489;SDS011;57752;53.574;9.736;2022-12-10T14:16:10;22.33;;;9.75;;
51489;SDS011;57752;53.574;9.736;2022-12-10T14:21:11;24.75;;;9.70;;
51489;SDS011;57752;53.574;9.736;2022-12-10T14:26:21;24.25;;;10.40;;
51489;SDS011;57752;53.574;9.736;2022-12-10T14:31:22;24.13;;;9.52;;
51489;SDS011;57752;53.574;9.736;2022-12-10T14:36:27;21.30;;;9.23;;
51489;SDS011;57752;53.574;9.736;2022-12-10T14:41:27;24.67;;;9.38;;
51489;SDS011;57752;53.574;9.736;2022-12-10T14:46:30;23.05;;;9.93;;
51489;SDS011;57752;53.574;9.736;2022-12-10T14:51:32;25.35;;;10.65;;
51489;SDS011;57752;53.574;9.736;2022-12-10T14:56:33;25.80;;;10.37;;
51489;SDS011;57752;53.574;9.736;2022-12-10T15:01:36;24.85;;;10.85;;
51489;SDS011;57752;53.574;9.736;2022-12-10T15:06:37;23.02;;;10.55;;
51489;SDS011;57752;53.574;9.736;2022-12-10T15:11:38;24.10;;;10.20;;
51489;SDS011;57752;53.574;9.736;2022-12-10T15:16:40;26.58;;;10.25;;
51489;SDS011;57752;53.574;9.736;2022-12-10T15:21:41;25.40;;;10.57;;
51489;SDS011;57752;53.574;9.736;2022-12-10T15:26:46;28.40;;;11.37;;
51489;SDS011;57752;53.574;9.736;2022-12-10T15:31:47;26.15;;;10.77;;
51489;SDS011;57752;53.574;9.736;2022-12-10T15:36:48;25.80;;;10.65;;
51489;SDS011;57752;53.574;9.736;2022-12-10T15:41:53;28.30;;;11.37;;
51489;SDS011;57752;53.574;9.736;2022-12-10T15:52:03;26.52;;;10.73;;
51489;SDS011;57752;53.574;9.736;2022-12-10T15:57:14;27.25;;;11.52;;
51489;SDS011;57752;53.574;9.736;2022-12-10T16:07:33;26.52;;;10.13;;
51489;SDS011;57752;53.574;9.736;2022-12-10T16:12:34;23.38;;;10.88;;
51489;SDS011;57752;53.574;9.736;2022-12-10T16:17:34;25.48;;;10.98;;
51489;SDS011;57752;53.574;9.736;2022-12-10T16:22:34;28.67;;;11.32;;
51489;SDS011;57752;53.574;9.736;2022-12-10T16:27:34;31.88;;;12.38;;
51489;SDS011;57752;53.574;9.736;2022-12-10T16:32:39;28.35;;;10.70;;
51489;SDS011;57752;53.574;9.736;2022-12-10T16:37:43;28.73;;;12.15;;
51489;SDS011;57752;53.574;9.736;2022-12-10T16:42:43;31.00;;;13.07;;
51489;SDS011;57752;53.574;9.736;2022-12-10T16:47:43;27.92;;;11.07;;
51489;SDS011;57752;53.574;9.736;2022-12-10T16:52:44;25.38;;;10.85;;
51489;SDS011;57752;53.574;9.736;2022-12-10T16:57:44;32.63;;;13.55;;
51489;SDS011;57752;53.574;9.736;2022-12-10T17:02:45;28.67;;;12.23;;
51489;SDS011;57752;53.574;9.736;2022-12-10T17:07:45;32.70;;;13.13;;
51489;SDS011;57752;53.574;9.736;2022-12-10T17:12:46;33.40;;;14.35;;
51489;SDS011;57752;53.574;9.736;2022-12-10T17:17:46;31.02;;;13.20;;
51489;SDS011;57752;53.574;9.736;2022-12-10T17:22:47;33.03;;;12.38;;
51489;SDS011;57752;53.574;9.736;2022-12-10T17:27:47;29.70;;;13.50;;
51489;SDS011;57752;53.574;9.736;2022-12-10T17:32:47;31.45;;;12.82;;
51489;SDS011;57752;53.574;9.736;2022-12-10T17:37:48;32.28;;;12.32;;
51489;SDS011;57752;53.574;9.736;2022-12-10T17:42:52;30.25;;;11.88;;
51489;SDS011;57752;53.574;9.736;2022-12-10T17:47:53;31.35;;;12.32;;
51489;SDS011;57752;53.574;9.736;2022-12-10T17:52:53;31.15;;;13.80;;
51489;SDS011;57752;53.574;9.736;2022-12-10T17:57:54;30.13;;;12.75;;
51489;SDS011;57752;53.574;9.736;2022-12-10T18:02:56;30.52;;;13.00;;
51489;SDS011;57752;53.574;9.736;2022-12-10T18:07:57;29.30;;;12.10;;
51489;SDS011;57752;53.574;9.736;2022-12-10T18:12:58;28.85;;;12.05;;
51489;SDS011;57752;53.574;9.736;2022-12-10T18:17:59;31.70;;;13.82;;
51489;SDS011;57752;53.574;9.736;2022-12-10T18:22:59;35.15;;;16.17;;
51489;SDS011;57752;53.574;9.736;2022-12-10T18:28:02;36.45;;;16.00;;
51489;SDS011;57752;53.574;9.736;2022-12-10T18:33:03;41.83;;;17.10;;
51489;SDS011;57752;53.574;9.736;2022-12-10T18:38:03;37.25;;;16.58;;
51489;SDS011;57752;53.574;9.736;2022-12-10T18:43:03;41.63;;;19.08;;
51489;SDS011;57752;53.574;9.736;2022-12-10T18:48:04;36.85;;;17.15;;
51489;SDS011;57752;53.574;9.736;2022-12-10T18:53:04;40.88;;;19.55;;
51489;SDS011;57752;53.574;9.736;2022-12-10T18:58:04;44.40;;;19.00;;
51489;SDS011;57752;53.574;9.736;2022-12-10T19:03:04;44.78;;;20.30;;
51489;SDS011;57752;53.574;9.736;2022-12-10T19:08:05;42.45;;;19.08;;
51489;SDS011;57752;53.574;9.736;2022-12-10T19:13:05;39.55;;;18.70;;
51489;SDS011;57752;53.574;9.736;2022-12-10T19:18:05;45.05;;;18.77;;
51489;SDS011;57752;53.574;9.736;2022-12-10T19:23:06;44.28;;;17.80;;
51489;SDS011;57752;53.574;9.736;2022-12-10T19:28:06;37.00;;;16.85;;
51489;SDS011;57752;53.574;9.736;2022-12-10T19:33:06;39.20;;;17.52;;
51489;SDS011;57752;53.574;9.736;2022-12-10T19:38:09;47.20;;;18.17;;
51489;SDS011;57752;53.574;9.736;2022-12-10T19:43:10;42.97;;;18.20;;
51489;SDS011;57752;53.574;9.736;2022-12-10T19:48:12;40.22;;;17.52;;
51489;SDS011;57752;53.574;9.736;2022-12-10T19:53:12;41.22;;;17.85;;
51489;SDS011;57752;53.574;9.736;2022-12-10T19:58:13;36.97;;;17.63;;
51489;SDS011;57752;53.574;9.736;2022-12-10T20:03:13;44.97;;;19.48;;
51489;SDS011;57752;53.574;9.736;2022-12-10T20:08:13;44.38;;;19.73;;
51489;SDS011;57752;53.574;9.736;2022-12-10T20:13:13;37.75;;;17.15;;
51489;SDS011;57752;53.574;9.736;2022-12-10T20:18:13;44.50;;;18.40;;
51489;SDS011;57752;53.574;9.736;2022-12-10T20:23:13;46.13;;;18.63;;
51489;SDS011;57752;53.574;9.736;2022-12-10T20:28:13;41.05;;;19.55;;
51489;SDS011;57752;53.574;9.736;2022-12-10T20:33:16;46.97;;;19.83;;
51489;SDS011;57752;53.574;9.736;2022-12-10T20:38:16;42.97;;;18.33;;
51489;SDS011;57752;53.574;9.736;2022-12-10T20:43:16;44.42;;;18.17;;
51489;SDS011;57752;53.574;9.736;2022-12-10T20:48:16;42.95;;;17.17;;
51489;SDS011;57752;53.574;9.736;2022-12-10T20:53:17;42.10;;;17.05;;
51489;SDS011;57752;53.574;9.736;2022-12-10T20:58:17;46.00;;;18.02;;
51489;SDS011;57752;53.574;9.736;2022-12-10T21:03:17;40.42;;;16.80;;
51489;SDS011;57752;53.574;9.736;2022-12-10T21:08:17;40.05;;;17.38;;
51489;SDS011;57752;53.574;9.736;2022-12-10T21:13:18;38.85;;;16.15;;
51489;SDS011;57752;53.574;9.736;2022-12-10T21:18:18;42.30;;;17.10;;
51489;SDS011;57752;53.574;9.736;2022-12-10T21:23:20;38.60;;;16.85;;
51489;SDS011;57752;53.574;9.736;2022-12-10T21:28:21;39.08;;;17.48;;
51489;SDS011;57752;53.574;9.736;2022-12-10T21:33:22;44.58;;;17.77;;
51489;SDS011;57752;53.574;9.736;2022-12-10T21:38:23;40.50;;;18.17;;
51489;SDS011;57752;53.574;9.736;2022-12-10T21:43:23;47.50;;;17.83;;
51489;SDS011;57752;53.574;9.736;2022-12-10T21:48:26;41.30;;;17.52;;
51489;SDS011;57752;53.574;9.736;2022-12-10T21:53:26;41.20;;;17.52;;
51489;SDS011;57752;53.574;9.736;2022-12-10T21:58:26;39.72;;;18.27;;
51489;SDS011;57752;53.574;9.736;2022-12-10T22:03:27;46.70;;;18.52;;
51489;SDS011;57752;53.574;9.736;2022-12-10T22:08:27;44.83;;;18.65;;
51489;SDS011;57752;53.574;9.736;2022-12-10T22:13:27;44.75;;;17.85;;
51489;SDS011;57752;53.574;9.736;2022-12-10T22:18:27;40.55;;;16.52;;
51489;SDS011;57752;53.574;9.736;2022-12-10T22:23:28;43.72;;;17.55;;
51489;SDS011;57752;53.574;9.736;2022-12-10T22:28:28;43.92;;;17.98;;
51489;SDS011;57752;53.574;9.736;2022-12-10T22:33:28;48.17;;;19.50;;
51489;SDS011;57752;53.574;9.736;2022-12-10T22:38:28;46.63;;;17.85;;
51489;SDS011;57752;53.574;9.736;2022-12-10T22:43:29;47.65;;;17.17;;
51489;SDS011;57752;53.574;9.736;2022-12-10T22:48:29;41.72;;;17.95;;
51489;SDS011;57752;53.574;9.736;2022-12-10T22:53:29;42.42;;;17.13;;
51489;SDS011;57752;53.574;9.736;2022-12-10T22:58:29;44.35;;;18.20;;
51489;SDS011;57752;53.574;9.736;2022-12-10T23:03:29;39.20;;;17.58;;
51489;SDS011;57752;53.574;9.736;2022-12-10T23:08:30;46.30;;;17.67;;
51489;SDS011;57752;53.574;9.736;2022-12-10T23:13:30;40.88;;;16.67;;
51489;SDS011;57752;53.574;9.736;2022-12-10T23:18:30;42.88;;;16.55;;
51489;SDS011;57752;53.574;9.736;2022-12-10T23:23:31;42.10;;;16.48;;
51489;SDS011;57752;53.574;9.736;2022-12-10T23:28:31;42.15;;;16.88;;
51489;SDS011;57752;53.574;9.736;2022-12-10T23:33:31;41.55;;;16.40;;
51489;SDS011;57752;53.574;9.736;2022-12-10T23:38:32;38.03;;;16.23;;
51489;SDS011;57752;53.574;9.736;2022-12-10T23:43:32;43.03;;;16.02;;
51489;SDS011;57752;53.574;9.736;2022-12-10T23:48:32;36.72;;;16.70;;
51489;SDS011;57752;53.574;9.736;2022-12-10T23:53:32;40.30;;;16.35;;
51489;SDS011;57752;53.574;9.736;2022-12-10T23:58:33;43.40;;;15.73;;
